createdAt,value
2022-10-28T00:00:30.307Z,18.25
2022-10-28T00:03:04.962Z,18.52
2022-10-28T00:05:38.365Z,22.38
2022-10-28T00:08:08.584Z,18.73
2022-10-28T00:10:42.282Z,19.63
2022-10-28T00:13:18.601Z,22.52
2022-10-28T00:15:48.587Z,21.38
2022-10-28T00:18:18.710Z,18.33
2022-10-28T00:20:48.899Z,22.17
2022-10-28T00:23:18.840Z,20.60
2022-10-28T00:25:50.897Z,22.35
2022-10-28T00:28:21.098Z,20.88
2022-10-28T00:30:52.071Z,21.55
2022-10-28T00:33:22.700Z,21.10
2022-10-28T00:36:08.333Z,22.65
2022-10-28T00:38:41.904Z,18.73
2022-10-28T00:41:13.056Z,22.10
2022-10-28T00:43:48.475Z,18.95
2022-10-28T00:46:20.515Z,18.70
2022-10-28T00:48:54.072Z,21.80
2022-10-28T00:51:26.823Z,21.63
2022-10-28T00:53:57.369Z,22.10
2022-10-28T00:56:58.164Z,26.70
2022-10-28T00:59:30.685Z,19.73
2022-10-28T01:02:00.927Z,22.13
2022-10-28T01:04:32.413Z,20.83
2022-10-28T01:07:02.946Z,21.25
2022-10-28T01:09:33.270Z,20.77
2022-10-28T01:12:18.155Z,23.13
2022-10-28T01:15:11.302Z,22.10
2022-10-28T01:18:06.185Z,23.23
2022-10-28T01:21:25.654Z,21.80
2022-10-28T01:24:09.724Z,21.15
2022-10-28T01:27:09.649Z,21.95
2022-10-28T01:30:05.439Z,23.67
2022-10-28T01:32:41.780Z,22.63
2022-10-28T01:35:20.841Z,21.85
2022-10-28T01:38:18.947Z,18.58
2022-10-28T01:40:59.150Z,21.60
2022-10-28T01:43:44.092Z,18.73
2022-10-28T01:46:36.834Z,19.02
2022-10-28T01:49:24.627Z,21.83
2022-10-28T01:51:56.927Z,25.40
2022-10-28T01:54:29.715Z,26.63
2022-10-28T01:57:18.538Z,22.70
2022-10-28T01:59:50.214Z,23.60
2022-10-28T02:02:20.596Z,18.15
2022-10-28T02:04:51.744Z,20.85
2022-10-28T02:07:22.650Z,20.40
2022-10-28T02:10:17.077Z,21.38
2022-10-28T02:12:47.281Z,19.10
2022-10-28T02:15:23.452Z,18.05
2022-10-28T02:18:17.706Z,18.15
2022-10-28T02:20:47.913Z,15.63
2022-10-28T02:23:18.172Z,17.60
2022-10-28T02:25:58.259Z,16.02
2022-10-28T02:28:43.797Z,27.15
2022-10-28T02:31:52.099Z,19.35
2022-10-28T02:34:33.950Z,14.70
2022-10-28T02:37:08.141Z,24.17
2022-10-28T02:39:42.960Z,14.80
2022-10-28T02:42:20.514Z,12.90
2022-10-28T02:44:53.716Z,14.77
2022-10-28T02:47:26.018Z,18.85
2022-10-28T02:49:59.126Z,21.65
2022-10-28T02:52:38.778Z,17.48
2022-10-28T02:55:14.316Z,19.20
2022-10-28T02:57:45.956Z,22.30
2022-10-28T03:00:18.797Z,20.63
2022-10-28T03:03:09.659Z,12.98
2022-10-28T03:05:40.283Z,16.05
2022-10-28T03:08:10.570Z,28.42
2022-10-28T03:10:40.911Z,24.48
2022-10-28T03:13:11.554Z,17.20
2022-10-28T03:15:51.275Z,19.55
2022-10-28T03:18:35.024Z,19.88
2022-10-28T03:21:05.614Z,18.25
2022-10-28T03:23:37.470Z,32.08
2022-10-28T03:26:37.902Z,20.77
2022-10-28T03:29:08.581Z,21.83
2022-10-28T03:31:45.395Z,14.57
2022-10-28T03:34:16.295Z,27.20
2022-10-28T03:36:46.618Z,21.17
2022-10-28T03:39:39.128Z,24.02
2022-10-28T03:42:09.430Z,26.10
2022-10-28T03:44:40.446Z,25.13
2022-10-28T03:47:11.925Z,12.98
2022-10-28T03:49:42.740Z,19.83
2022-10-28T03:52:12.757Z,18.35
2022-10-28T03:54:43.060Z,27.00
2022-10-28T03:57:13.684Z,21.17
2022-10-28T03:59:44.163Z,19.20
2022-10-28T04:02:16.866Z,23.00
2022-10-28T04:04:48.238Z,20.73
2022-10-28T04:07:22.060Z,19.27
2022-10-28T04:09:52.907Z,21.90
2022-10-28T04:12:23.256Z,17.60
2022-10-28T04:14:54.875Z,18.70
2022-10-28T04:17:25.267Z,15.70
2022-10-28T04:19:55.496Z,21.70
2022-10-28T04:22:25.709Z,23.63
2022-10-28T04:24:55.890Z,23.92
2022-10-28T04:27:26.649Z,13.18
2022-10-28T04:29:57.351Z,21.85
2022-10-28T04:32:27.426Z,17.70
2022-10-28T04:34:58.736Z,17.33
2022-10-28T04:37:29.188Z,16.52
2022-10-28T04:39:59.288Z,15.20
2022-10-28T04:42:29.545Z,11.57
2022-10-28T04:45:06.788Z,12.45
2022-10-28T04:47:37.102Z,11.60
2022-10-28T04:50:09.447Z,12.25
2022-10-28T04:52:40.165Z,15.90
2022-10-28T04:55:12.799Z,16.00
2022-10-28T04:57:43.190Z,10.73
2022-10-28T05:00:14.137Z,12.07
2022-10-28T05:02:46.084Z,12.77
2022-10-28T05:07:52.401Z,14.40
2022-10-28T05:10:22.656Z,10.70
2022-10-28T05:12:52.750Z,6.70
2022-10-28T05:15:23.449Z,12.32
2022-10-28T05:17:55.699Z,15.13
2022-10-28T05:20:28.019Z,16.38
2022-10-28T05:22:58.305Z,13.00
2022-10-28T05:25:28.851Z,15.48
2022-10-28T05:28:02.625Z,16.23
2022-10-28T05:30:32.881Z,10.80
2022-10-28T05:33:03.897Z,13.80
2022-10-28T05:35:34.155Z,12.23
2022-10-28T05:38:04.284Z,11.20
2022-10-28T05:40:37.701Z,10.75
2022-10-28T05:43:11.429Z,11.73
2022-10-28T05:45:41.956Z,10.50
2022-10-28T05:48:13.531Z,10.45
2022-10-28T05:50:44.539Z,11.85
2022-10-28T05:53:14.878Z,11.38
2022-10-28T05:55:47.623Z,15.80
2022-10-28T05:58:18.177Z,8.27
2022-10-28T06:00:48.418Z,12.00
2022-10-28T06:03:19.381Z,9.50
2022-10-28T06:05:49.459Z,10.63
2022-10-28T06:08:19.521Z,8.77
2022-10-28T06:10:58.169Z,6.50
2022-10-28T06:13:28.946Z,9.38
2022-10-28T06:15:58.932Z,9.10
2022-10-28T06:18:29.017Z,10.40
2022-10-28T06:20:59.524Z,11.65
2022-10-28T06:23:32.483Z,8.90
2022-10-28T06:26:03.524Z,6.55
2022-10-28T06:28:34.034Z,12.40
2022-10-28T06:31:08.229Z,9.68
2022-10-28T06:33:38.443Z,5.95
2022-10-28T06:36:08.856Z,14.20
2022-10-28T06:38:38.832Z,10.50
2022-10-28T06:41:08.910Z,6.40
2022-10-28T06:43:38.937Z,8.82
2022-10-28T06:46:10.039Z,7.28
2022-10-28T06:48:41.957Z,6.25
2022-10-28T06:51:12.401Z,8.90
2022-10-28T06:53:42.364Z,7.03
2022-10-28T06:56:12.486Z,8.55
2022-10-28T06:58:42.505Z,8.27
2022-10-28T07:01:12.712Z,10.23
2022-10-28T07:03:42.882Z,9.60
2022-10-28T07:08:47.797Z,10.27
2022-10-28T07:11:17.977Z,10.55
2022-10-28T07:13:48.996Z,5.70
2022-10-28T07:16:19.567Z,8.75
2022-10-28T07:18:49.645Z,6.85
2022-10-28T07:21:19.900Z,6.95
2022-10-28T07:23:50.159Z,9.40
2022-10-28T07:26:20.372Z,8.20
2022-10-28T07:28:50.463Z,9.07
2022-10-28T07:31:20.409Z,4.38
2022-10-28T07:33:56.579Z,7.97
2022-10-28T07:36:26.961Z,9.43
2022-10-28T07:38:57.322Z,5.78
2022-10-28T07:41:27.434Z,6.30
2022-10-28T07:43:57.529Z,5.57
2022-10-28T07:46:27.678Z,5.97
2022-10-28T07:48:58.074Z,4.00
2022-10-28T07:51:28.100Z,5.68
2022-10-28T07:53:59.333Z,5.75
2022-10-28T07:56:29.777Z,4.38
2022-10-28T07:59:01.458Z,6.03
2022-10-28T08:01:35.000Z,3.85
2022-10-28T08:04:05.436Z,6.35
2022-10-28T08:06:35.871Z,6.35
2022-10-28T08:09:06.127Z,10.18
2022-10-28T08:11:36.403Z,5.60
2022-10-28T08:14:06.928Z,6.82
2022-10-28T08:16:36.941Z,5.82
2022-10-28T08:19:07.846Z,9.23
2022-10-28T08:21:38.352Z,4.53
2022-10-28T08:24:08.963Z,3.13
2022-10-28T08:26:39.302Z,5.25
2022-10-28T08:29:11.439Z,4.68
2022-10-28T08:31:41.946Z,4.43
2022-10-28T08:34:12.250Z,4.47
2022-10-28T08:36:42.438Z,7.50
2022-10-28T08:39:12.573Z,5.22
2022-10-28T08:41:46.144Z,5.88
2022-10-28T08:44:37.672Z,4.85
2022-10-28T08:47:11.066Z,4.32
2022-10-28T08:49:44.558Z,3.92
2022-10-28T08:52:27.765Z,3.33
2022-10-28T08:55:06.773Z,5.07
2022-10-28T08:57:50.245Z,3.70
2022-10-28T09:00:26.170Z,6.25
2022-10-28T09:03:14.804Z,2.72
2022-10-28T09:05:52.186Z,4.13
2022-10-28T09:08:26.186Z,3.97
2022-10-28T09:11:17.958Z,2.88
2022-10-28T09:14:09.453Z,4.25
2022-10-28T09:16:42.324Z,2.33
2022-10-28T09:19:33.958Z,4.38
2022-10-28T09:22:25.848Z,5.57
2022-10-28T09:25:08.538Z,3.13
2022-10-28T09:28:14.156Z,6.80
2022-10-28T09:31:07.926Z,4.47
2022-10-28T09:33:41.305Z,3.08
2022-10-28T09:36:25.548Z,3.40
2022-10-28T09:38:56.665Z,3.05
2022-10-28T09:41:32.835Z,2.83
2022-10-28T09:44:31.142Z,5.13
2022-10-28T09:47:10.142Z,3.67
2022-10-28T09:49:41.152Z,2.85
2022-10-28T09:52:15.349Z,3.88
2022-10-28T09:54:53.743Z,2.85
2022-10-28T09:57:25.835Z,2.30
2022-10-28T09:59:56.054Z,4.68
2022-10-28T10:02:29.723Z,5.68
2022-10-28T10:05:00.826Z,4.72
2022-10-28T10:07:44.068Z,2.58
2022-10-28T10:10:25.313Z,2.65
2022-10-28T10:13:02.223Z,3.05
2022-10-28T10:15:58.169Z,4.20
2022-10-28T10:18:34.285Z,2.15
2022-10-28T10:21:08.036Z,6.32
2022-10-28T10:26:20.214Z,4.35
2022-10-28T10:28:56.106Z,4.03
2022-10-28T10:34:06.834Z,3.00
2022-10-28T10:36:40.843Z,2.55
2022-10-28T10:39:38.361Z,2.28
2022-10-28T10:42:18.569Z,3.83
2022-10-28T10:44:48.865Z,3.30
2022-10-28T10:47:26.568Z,3.65
2022-10-28T10:50:33.207Z,5.53
2022-10-28T10:53:03.353Z,3.30
2022-10-28T10:55:41.686Z,3.85
2022-10-28T10:58:18.727Z,4.38
2022-10-28T11:00:53.959Z,2.22
2022-10-28T11:03:30.491Z,3.42
2022-10-28T11:09:08.310Z,4.07
2022-10-28T11:11:42.390Z,4.07
2022-10-28T11:14:14.454Z,5.18
2022-10-28T11:17:00.410Z,2.60
2022-10-28T11:19:36.882Z,5.70
2022-10-28T11:22:16.314Z,9.98
2022-10-28T11:25:22.814Z,14.10
2022-10-28T11:28:04.965Z,47.25
2022-10-28T11:33:50.316Z,25.67
2022-10-28T11:36:34.720Z,31.60
2022-10-28T11:39:26.651Z,40.80
2022-10-28T11:42:17.722Z,47.08
2022-10-28T11:45:07.760Z,40.47
2022-10-28T11:47:39.502Z,29.60
2022-10-28T11:50:18.090Z,55.28
2022-10-28T11:53:26.753Z,35.72
2022-10-28T11:56:22.413Z,44.83
2022-10-28T11:58:58.718Z,37.28
2022-10-28T12:02:00.670Z,36.45
2022-10-28T12:05:06.293Z,45.10
2022-10-28T12:07:52.033Z,38.13
2022-10-28T12:10:52.725Z,23.35
2022-10-28T12:13:56.003Z,32.85
2022-10-28T12:16:43.243Z,37.67
2022-10-28T12:19:34.203Z,35.58
2022-10-28T12:22:18.284Z,33.28
2022-10-28T12:24:54.727Z,31.70
2022-10-28T12:27:30.735Z,31.70
2022-10-28T12:30:09.832Z,24.95
2022-10-28T12:32:43.141Z,22.60
2022-10-28T12:35:34.524Z,26.95
2022-10-28T12:38:35.549Z,24.15
2022-10-28T12:41:29.741Z,35.20
2022-10-28T12:44:16.880Z,21.25
2022-10-28T12:47:36.765Z,27.60
2022-10-28T12:50:42.389Z,26.55
2022-10-28T12:53:33.005Z,19.48
2022-10-28T12:56:10.171Z,22.58
2022-10-28T12:59:06.841Z,23.40
2022-10-28T13:01:37.192Z,25.50
2022-10-28T13:04:10.533Z,21.10
2022-10-28T13:06:55.330Z,24.20
2022-10-28T13:09:55.903Z,23.23
2022-10-28T13:12:38.439Z,27.83
2022-10-28T13:15:39.048Z,17.00
2022-10-28T13:18:31.828Z,26.05
2022-10-28T13:21:17.161Z,19.75
2022-10-28T13:24:02.783Z,18.00
2022-10-28T13:26:38.610Z,20.60
2022-10-28T13:29:09.325Z,25.20
2022-10-28T13:31:40.504Z,16.02
2022-10-28T13:34:23.147Z,13.77
2022-10-28T13:37:00.588Z,15.98
2022-10-28T13:39:30.708Z,17.67
2022-10-28T13:42:24.600Z,17.48
2022-10-28T13:44:59.852Z,15.07
2022-10-28T13:47:42.596Z,19.20
2022-10-28T13:50:16.781Z,14.75
2022-10-28T13:52:54.479Z,20.70
2022-10-28T13:55:42.361Z,20.98
2022-10-28T13:58:27.367Z,17.15
2022-10-28T14:01:00.561Z,15.27
2022-10-28T14:03:34.461Z,15.40
2022-10-28T14:06:10.584Z,16.45
2022-10-28T14:08:44.406Z,18.35
2022-10-28T14:11:26.794Z,16.67
2022-10-28T14:14:02.763Z,16.65
2022-10-28T14:19:15.319Z,16.90
2022-10-28T14:22:12.235Z,18.13
2022-10-28T14:24:46.728Z,14.35
2022-10-28T14:27:53.838Z,16.00
2022-10-28T14:33:03.945Z,18.55
2022-10-28T14:35:46.473Z,15.57
2022-10-28T14:38:30.298Z,14.57
2022-10-28T14:41:19.339Z,13.48
2022-10-28T14:44:37.184Z,12.57
2022-10-28T14:47:41.866Z,15.15
2022-10-28T14:50:20.916Z,14.60
2022-10-28T14:52:59.379Z,11.88
2022-10-28T14:55:36.729Z,18.05
2022-10-28T15:02:01.185Z,12.02
2022-10-28T15:04:31.595Z,15.15
2022-10-28T15:07:04.756Z,12.20
2022-10-28T15:09:39.416Z,12.10
2022-10-28T15:12:14.732Z,15.38
2022-10-28T15:15:00.251Z,13.35
2022-10-28T15:17:32.186Z,8.80
2022-10-28T15:20:02.528Z,13.25
2022-10-28T15:22:34.418Z,12.35
2022-10-28T15:25:12.412Z,15.32
2022-10-28T15:27:50.190Z,11.48
2022-10-28T15:30:27.880Z,11.05
2022-10-28T15:33:20.249Z,11.45
2022-10-28T15:35:50.312Z,9.00
2022-10-28T15:38:38.124Z,11.43
2022-10-28T15:41:43.503Z,9.68
2022-10-28T15:44:32.635Z,9.02
2022-10-28T15:47:10.345Z,11.05
2022-10-28T15:49:41.985Z,11.80
2022-10-28T15:52:21.899Z,11.35
2022-10-28T15:55:02.000Z,9.70
2022-10-28T15:57:33.402Z,10.07
2022-10-28T16:00:30.325Z,11.43
2022-10-28T16:03:08.909Z,9.95
2022-10-28T16:05:39.146Z,10.05
2022-10-28T16:08:16.552Z,8.98
2022-10-28T16:11:11.069Z,8.50
2022-10-28T16:13:50.175Z,8.27
2022-10-28T16:16:30.691Z,10.05
2022-10-28T16:19:33.078Z,7.10
2022-10-28T16:22:10.039Z,10.85
2022-10-28T16:24:46.209Z,9.35
2022-10-28T16:27:23.147Z,9.95
2022-10-28T16:29:53.303Z,11.98
2022-10-28T16:32:32.767Z,9.82
2022-10-28T16:35:06.484Z,9.95
2022-10-28T16:37:38.335Z,10.88
2022-10-28T16:40:37.858Z,8.10
2022-10-28T16:43:07.667Z,8.82
2022-10-28T16:45:38.087Z,8.55
2022-10-28T16:48:16.046Z,10.73
2022-10-28T16:50:53.384Z,7.68
2022-10-28T16:53:29.889Z,8.80
2022-10-28T16:56:00.720Z,9.80
2022-10-28T16:58:34.307Z,6.72
2022-10-28T17:01:04.751Z,8.52
2022-10-28T17:03:40.670Z,9.45
2022-10-28T17:11:37.697Z,10.37
2022-10-28T17:14:07.902Z,10.52
2022-10-28T17:16:40.697Z,6.15
2022-10-28T17:19:16.335Z,9.32
2022-10-28T17:21:52.520Z,8.48
2022-10-28T17:24:25.957Z,6.97
2022-10-28T17:27:02.588Z,9.02
2022-10-28T17:29:39.100Z,6.70
2022-10-28T17:32:12.217Z,5.88
2022-10-28T17:34:48.451Z,8.00
2022-10-28T17:37:30.988Z,8.13
2022-10-28T17:40:01.308Z,7.30
2022-10-28T17:42:31.431Z,7.93
2022-10-28T17:45:01.426Z,9.02
2022-10-28T17:47:31.450Z,4.95
2022-10-28T17:50:02.258Z,11.00
2022-10-28T17:52:35.861Z,6.25
2022-10-28T17:57:44.476Z,5.93
2022-10-28T18:02:58.755Z,6.22
2022-10-28T18:05:35.537Z,8.07
2022-10-28T18:08:06.307Z,7.97
2022-10-28T18:10:42.939Z,6.85
2022-10-28T18:13:16.294Z,5.35
2022-10-28T18:15:46.579Z,6.68
2022-10-28T18:18:19.595Z,8.25
2022-10-28T18:21:02.457Z,6.05
2022-10-28T18:23:34.299Z,6.88
2022-10-28T18:26:11.898Z,5.78
2022-10-28T18:28:47.423Z,6.93
2022-10-28T18:31:19.494Z,4.43
2022-10-28T18:33:51.420Z,9.40
2022-10-28T18:36:26.486Z,6.20
2022-10-28T18:39:03.041Z,5.45
2022-10-28T18:41:33.624Z,4.25
2022-10-28T18:44:06.468Z,4.47
2022-10-28T18:46:38.747Z,5.00
2022-10-28T18:49:09.056Z,6.38
2022-10-28T18:51:42.469Z,6.63
2022-10-28T18:54:13.073Z,5.78
2022-10-28T18:56:47.590Z,6.78
2022-10-28T18:59:24.908Z,5.20
2022-10-28T19:01:55.156Z,7.32
2022-10-28T19:04:25.670Z,4.45
2022-10-28T19:06:56.039Z,6.13
2022-10-28T19:09:27.279Z,5.32
2022-10-28T19:11:58.861Z,4.05
2022-10-28T19:14:35.036Z,4.97
2022-10-28T19:17:11.165Z,3.92
2022-10-28T19:19:44.381Z,8.20
2022-10-28T19:22:14.498Z,7.10
2022-10-28T19:24:46.659Z,5.13
2022-10-28T19:27:16.818Z,4.45
2022-10-28T19:29:53.788Z,5.70
2022-10-28T19:32:24.037Z,8.15
2022-10-28T19:34:55.162Z,7.45
2022-10-28T19:37:26.258Z,5.20
2022-10-28T19:39:56.756Z,4.15
2022-10-28T19:42:39.536Z,5.57
2022-10-28T19:45:10.930Z,6.10
2022-10-28T19:47:44.154Z,6.72
2022-10-28T19:50:14.465Z,5.20
2022-10-28T19:52:47.433Z,4.13
2022-10-28T19:55:20.409Z,7.80
2022-10-28T19:57:56.646Z,6.07
2022-10-28T20:00:33.195Z,7.00
2022-10-28T20:03:03.476Z,3.08
2022-10-28T20:05:33.465Z,4.32
2022-10-28T20:08:03.635Z,4.82
2022-10-28T20:10:33.589Z,3.78
2022-10-28T20:13:06.691Z,5.30
2022-10-28T20:15:36.942Z,3.88
2022-10-28T20:18:07.355Z,3.08
2022-10-28T20:20:40.433Z,6.13
2022-10-28T20:23:10.678Z,5.03
2022-10-28T20:25:40.918Z,5.40
2022-10-28T20:28:10.990Z,5.07
2022-10-28T20:30:46.945Z,3.08
2022-10-28T20:33:17.030Z,4.60
2022-10-28T20:35:53.066Z,6.78
2022-10-28T20:38:35.389Z,6.45
2022-10-28T20:41:05.546Z,4.85
2022-10-28T20:43:35.725Z,5.55
2022-10-28T20:46:06.856Z,2.53
2022-10-28T20:48:36.841Z,4.57
2022-10-28T20:51:12.886Z,5.53
2022-10-28T20:53:46.481Z,2.90
2022-10-28T20:56:21.978Z,3.83
2022-10-28T20:58:52.296Z,3.33
2022-10-28T21:01:24.563Z,4.20
2022-10-28T21:04:02.168Z,4.65
2022-10-28T21:06:32.580Z,3.53
2022-10-28T21:09:02.563Z,3.75
2022-10-28T21:11:32.671Z,3.88
2022-10-28T21:14:03.013Z,4.75
2022-10-28T21:16:33.365Z,3.30
2022-10-28T21:19:04.019Z,5.88
2022-10-28T21:21:34.401Z,5.95
2022-10-28T21:24:04.880Z,3.80
2022-10-28T21:26:34.906Z,3.08
2022-10-28T21:29:04.961Z,4.07
2022-10-28T21:31:35.231Z,3.47
2022-10-28T21:34:07.492Z,3.17
2022-10-28T21:36:38.821Z,5.28
2022-10-28T21:39:11.268Z,3.00
2022-10-28T21:41:44.494Z,4.25
2022-10-28T21:44:20.889Z,3.60
2022-10-28T21:46:55.950Z,3.22
2022-10-28T21:49:28.643Z,3.42
2022-10-28T21:51:58.979Z,5.53
2022-10-28T21:54:30.886Z,3.53
2022-10-28T21:57:03.000Z,2.53
2022-10-28T21:59:39.434Z,5.10
2022-10-28T22:02:09.924Z,5.68
2022-10-28T22:04:40.717Z,3.55
2022-10-28T22:07:10.807Z,2.17
2022-10-28T22:09:46.868Z,3.03
2022-10-28T22:12:17.294Z,2.80
2022-10-28T22:14:47.228Z,2.25
2022-10-28T22:17:20.091Z,3.40
2022-10-28T22:19:51.271Z,2.13
2022-10-28T22:22:24.219Z,3.58
2022-10-28T22:24:54.553Z,3.08
2022-10-28T22:27:30.540Z,3.47
2022-10-28T22:30:06.452Z,2.40
2022-10-28T22:32:42.347Z,2.70
2022-10-28T22:37:42.495Z,3.22
2022-10-28T22:40:19.114Z,3.55
2022-10-28T22:42:50.800Z,2.88
2022-10-28T22:45:22.531Z,4.15
2022-10-28T22:47:58.948Z,3.60
2022-10-28T22:50:30.614Z,6.22
2022-10-28T22:53:06.852Z,4.00
2022-10-28T22:55:36.932Z,3.42
2022-10-28T22:58:10.381Z,2.78
2022-10-28T23:00:40.766Z,2.28
2022-10-28T23:03:10.804Z,2.53
2022-10-28T23:05:46.871Z,2.70
2022-10-28T23:08:20.302Z,2.97
2022-10-28T23:10:50.409Z,3.40
2022-10-28T23:13:35.366Z,3.72
2022-10-28T23:16:06.786Z,4.20
2022-10-28T23:18:43.109Z,4.03
2022-10-28T23:21:18.486Z,5.50
2022-10-28T23:23:54.615Z,6.50
2022-10-28T23:26:31.064Z,4.85
2022-10-28T23:29:01.990Z,3.28
2022-10-28T23:31:35.070Z,4.28
2022-10-28T23:34:05.419Z,2.58
2022-10-28T23:36:36.014Z,2.70
2022-10-28T23:39:06.370Z,3.67
2022-10-28T23:41:42.395Z,3.45
2022-10-28T23:44:12.673Z,3.17
2022-10-28T23:46:42.874Z,2.85
2022-10-28T23:49:13.169Z,12.27
2022-10-28T23:51:49.400Z,2.85
2022-10-28T23:54:29.434Z,3.33
2022-10-28T23:57:03.653Z,4.05
2022-10-28T23:59:34.667Z,3.88
